Prairie Lea, Texas
Current Conditions -  °F | °C
As of 8:35 PM on Friday 24 Oct 2014 (Local Time) from KHYI Reporting Station
Clear Clear  
Wind Chill: 72°   Ceiling: Unl
Heat Index: 72°   Visibility: 10mi
Dew Point: 55°   Wind: 3mph
Humidity: 57%   Direction: 130°SE
Pressure: 30.12"   Gusts: NA
Location:  29.73°N, 97.75°W
Report Text: KHYI 250135Z 13003KT 10SM CLR 22/13 A3012 RMK AO1
Loading
Personal Weather Stations






























Interactive Weather Map New forecast layout! Learn more

10-Day Weather Forecast

Advertisements
Track Severe Weather on mobile